createdAt,value
2023-04-16T00:02:05.348Z,5.57
2023-04-16T00:04:22.437Z,5.07
2023-04-16T00:06:39.553Z,5.35
2023-04-16T00:08:56.832Z,5.35
2023-04-16T00:11:14.350Z,5.55
2023-04-16T00:13:31.297Z,5.25
2023-04-16T00:15:48.619Z,6.05
2023-04-16T00:18:05.869Z,6.38
2023-04-16T00:20:22.748Z,6.45
2023-04-16T00:22:39.644Z,6.20
2023-04-16T00:24:56.910Z,6.60
2023-04-16T00:27:13.952Z,6.60
2023-04-16T00:29:31.275Z,7.40
2023-04-16T00:31:48.215Z,6.80
2023-04-16T00:34:05.309Z,7.70
2023-04-16T00:36:23.518Z,7.10
2023-04-16T00:38:40.459Z,7.10
2023-04-16T00:40:57.761Z,7.40
2023-04-16T00:43:15.151Z,7.18
2023-04-16T00:45:32.387Z,7.57
2023-04-16T00:47:50.758Z,7.20
2023-04-16T00:50:07.766Z,7.40
2023-04-16T00:52:24.815Z,8.18
2023-04-16T00:54:42.881Z,8.32
2023-04-16T00:57:00.195Z,8.05
2023-04-16T00:59:17.479Z,8.18
2023-04-16T01:01:34.644Z,8.13
2023-04-16T01:03:51.800Z,8.43
2023-04-16T01:06:08.770Z,9.07
2023-04-16T01:08:25.742Z,8.20
2023-04-16T01:10:43.045Z,8.57
2023-04-16T01:12:59.987Z,9.23
2023-04-16T01:15:16.989Z,8.27
2023-04-16T01:17:34.003Z,8.50
2023-04-16T01:19:52.352Z,8.75
2023-04-16T01:22:09.607Z,8.52
2023-04-16T01:24:26.603Z,8.20
2023-04-16T01:26:43.825Z,8.88
2023-04-16T01:29:01.070Z,7.75
2023-04-16T01:31:18.230Z,7.90
2023-04-16T01:33:36.562Z,8.02
2023-04-16T01:35:53.844Z,8.60
2023-04-16T01:38:11.928Z,7.93
2023-04-16T01:40:29.569Z,7.80
2023-04-16T01:42:47.830Z,7.70
2023-04-16T01:45:04.865Z,7.80
2023-04-16T01:47:21.961Z,7.35
2023-04-16T01:49:39.048Z,7.82
2023-04-16T01:51:57.174Z,7.35
2023-04-16T01:54:14.427Z,7.40
2023-04-16T01:56:31.391Z,7.45
2023-04-16T01:58:49.330Z,7.60
2023-04-16T02:01:06.713Z,6.93
2023-04-16T02:03:25.194Z,7.35
2023-04-16T02:05:42.737Z,7.05
2023-04-16T02:07:59.821Z,6.85
2023-04-16T02:10:16.860Z,6.90
2023-04-16T02:12:33.927Z,6.95
2023-04-16T02:14:51.002Z,7.03
2023-04-16T02:17:08.255Z,6.65
2023-04-16T02:19:26.552Z,6.28
2023-04-16T02:21:43.803Z,6.28
2023-04-16T02:24:02.061Z,6.60
2023-04-16T02:26:19.040Z,6.88
2023-04-16T02:28:36.042Z,7.25
2023-04-16T02:30:52.933Z,7.10
2023-04-16T02:33:10.248Z,7.30
2023-04-16T02:35:27.544Z,7.80
2023-04-16T02:37:44.768Z,7.15
2023-04-16T02:40:01.844Z,7.57
2023-04-16T02:42:18.949Z,7.50
2023-04-16T02:44:36.190Z,7.70
2023-04-16T02:46:53.194Z,7.97
2023-04-16T02:49:11.370Z,8.15
2023-04-16T02:51:28.884Z,7.78
2023-04-16T02:53:46.190Z,8.18
2023-04-16T02:56:04.130Z,7.82
2023-04-16T02:58:21.190Z,8.32
2023-04-16T03:00:38.224Z,7.28
2023-04-16T03:02:55.509Z,8.15
2023-04-16T03:05:12.603Z,8.55
2023-04-16T03:07:29.532Z,7.65
2023-04-16T03:09:47.612Z,7.68
2023-04-16T03:12:04.617Z,8.10
2023-04-16T03:14:21.583Z,7.88
2023-04-16T03:16:38.824Z,7.88
2023-04-16T03:18:57.098Z,8.45
2023-04-16T03:21:13.978Z,8.50
2023-04-16T03:23:31.169Z,8.63
2023-04-16T03:25:48.167Z,9.27
2023-04-16T03:28:05.200Z,9.05
2023-04-16T03:30:22.218Z,9.30
2023-04-16T03:32:39.250Z,8.70
2023-04-16T03:34:56.285Z,9.32
2023-04-16T03:37:13.307Z,10.15
2023-04-16T03:39:31.268Z,9.77
2023-04-16T03:41:48.248Z,10.00
2023-04-16T03:44:05.190Z,9.25
2023-04-16T03:46:22.647Z,10.40
2023-04-16T03:48:40.915Z,10.70
2023-04-16T03:50:58.193Z,10.68
2023-04-16T03:53:15.161Z,10.65
2023-04-16T03:55:32.415Z,11.15
2023-04-16T03:57:49.354Z,11.45
2023-04-16T04:00:06.562Z,10.48
2023-04-16T04:02:23.942Z,11.93
2023-04-16T04:04:41.308Z,11.43
2023-04-16T04:06:58.397Z,11.70
2023-04-16T04:09:16.176Z,11.88
2023-04-16T04:11:33.207Z,12.52
2023-04-16T04:13:50.290Z,12.52
2023-04-16T04:16:07.358Z,12.55
2023-04-16T04:18:24.467Z,12.43
2023-04-16T04:20:41.787Z,12.75
2023-04-16T04:22:58.797Z,12.77
2023-04-16T04:25:15.821Z,11.80
2023-04-16T04:27:33.152Z,12.23
2023-04-16T04:29:50.401Z,12.48
2023-04-16T04:32:07.910Z,12.35
2023-04-16T04:34:25.050Z,12.27
2023-04-16T04:36:42.306Z,12.15
2023-04-16T04:38:59.528Z,12.15
2023-04-16T04:41:17.921Z,12.32
2023-04-16T04:43:35.186Z,11.38
2023-04-16T04:45:52.206Z,11.60
2023-04-16T04:48:09.285Z,11.73
2023-04-16T04:50:26.628Z,11.85
2023-04-16T04:52:43.868Z,11.10
2023-04-16T04:55:00.923Z,10.80
2023-04-16T04:57:18.208Z,10.75
2023-04-16T04:59:35.139Z,10.88
2023-04-16T05:01:52.198Z,11.60
2023-04-16T05:04:09.272Z,10.50
2023-04-16T05:06:28.341Z,11.32
2023-04-16T05:08:47.502Z,11.30
2023-04-16T05:11:04.706Z,10.95
2023-04-16T05:13:21.735Z,11.27
2023-04-16T05:15:38.778Z,10.27
2023-04-16T05:17:55.954Z,19.42
2023-04-16T05:20:13.244Z,22.48
2023-04-16T05:22:30.075Z,15.95
2023-04-16T05:24:47.277Z,14.95
2023-04-16T05:27:04.360Z,13.02
2023-04-16T05:29:21.334Z,11.10
2023-04-16T05:31:38.347Z,11.40
2023-04-16T05:33:55.298Z,9.73
2023-04-16T05:36:12.568Z,14.00
2023-04-16T05:38:29.552Z,13.60
2023-04-16T05:40:47.757Z,12.80
2023-04-16T05:43:04.828Z,12.32
2023-04-16T05:45:22.263Z,24.50
2023-04-16T05:47:39.547Z,45.03
2023-04-16T05:49:56.458Z,15.05
2023-04-16T05:52:13.736Z,20.98
2023-04-16T05:54:31.137Z,12.32
2023-04-16T05:56:48.549Z,10.68
2023-04-16T05:59:07.040Z,10.02
2023-04-16T06:01:24.374Z,8.63
2023-04-16T06:03:41.641Z,9.27
2023-04-16T06:05:59.790Z,7.95
2023-04-16T06:08:16.780Z,8.68
2023-04-16T06:10:33.721Z,8.80
2023-04-16T06:12:50.681Z,8.80
2023-04-16T06:15:08.008Z,9.05
2023-04-16T06:17:25.094Z,8.43
2023-04-16T06:19:42.167Z,8.45
2023-04-16T06:21:59.540Z,8.98
2023-04-16T06:24:16.613Z,8.40
2023-04-16T06:26:33.650Z,8.85
2023-04-16T06:28:50.530Z,8.38
2023-04-16T06:31:07.795Z,8.60
2023-04-16T06:33:24.911Z,8.68
2023-04-16T06:35:43.152Z,8.15
2023-04-16T06:38:00.436Z,8.20
2023-04-16T06:40:18.727Z,8.05
2023-04-16T06:42:35.591Z,7.72
2023-04-16T06:44:52.646Z,8.70
2023-04-16T06:47:09.911Z,8.20
2023-04-16T06:49:27.018Z,9.18
2023-04-16T06:51:44.092Z,7.70
2023-04-16T06:54:02.071Z,7.75
2023-04-16T06:56:19.084Z,8.00
2023-04-16T06:58:37.085Z,8.27
2023-04-16T07:00:54.130Z,21.95
2023-04-16T07:03:11.582Z,23.88
2023-04-16T07:05:28.892Z,24.08
2023-04-16T07:07:46.191Z,30.50
2023-04-16T07:10:03.218Z,18.05
2023-04-16T07:12:22.012Z,14.20
2023-04-16T07:14:39.986Z,12.45
2023-04-16T07:16:57.272Z,10.45
2023-04-16T07:19:14.319Z,8.73
2023-04-16T07:21:31.300Z,9.70
2023-04-16T07:23:48.281Z,10.05
2023-04-16T07:26:06.292Z,10.50
2023-04-16T07:28:23.299Z,8.80
2023-04-16T07:30:41.204Z,8.48
2023-04-16T07:32:58.542Z,8.35
2023-04-16T07:35:15.655Z,8.07
2023-04-16T07:37:32.654Z,7.90
2023-04-16T07:39:49.585Z,7.50
2023-04-16T07:42:06.442Z,8.07
2023-04-16T07:44:23.743Z,8.20
2023-04-16T07:46:46.897Z,8.07
2023-04-16T07:49:04.516Z,7.75
2023-04-16T07:51:21.708Z,7.80
2023-04-16T07:53:38.590Z,8.10
2023-04-16T07:55:55.840Z,7.40
2023-04-16T07:58:12.909Z,8.02
2023-04-16T08:00:31.123Z,7.93
2023-04-16T08:02:48.547Z,8.18
2023-04-16T08:05:05.923Z,8.13
2023-04-16T08:07:22.974Z,8.35
2023-04-16T08:09:39.979Z,7.55
2023-04-16T08:11:58.190Z,7.40
2023-04-16T08:14:15.276Z,7.90
2023-04-16T08:16:33.511Z,7.15
2023-04-16T08:18:50.739Z,7.30
2023-04-16T08:21:08.231Z,7.00
2023-04-16T08:23:25.298Z,7.20
2023-04-16T08:25:42.308Z,6.85
2023-04-16T08:28:00.169Z,6.60
2023-04-16T08:30:17.505Z,7.03
2023-04-16T08:32:35.538Z,6.18
2023-04-16T08:34:52.498Z,7.15
2023-04-16T08:37:09.634Z,6.95
2023-04-16T08:39:26.614Z,6.20
2023-04-16T08:41:43.639Z,21.48
2023-04-16T08:44:01.700Z,11.80
2023-04-16T08:46:18.996Z,9.43
2023-04-16T08:48:36.382Z,8.50
2023-04-16T08:50:55.508Z,7.72
2023-04-16T08:53:12.848Z,7.25
2023-04-16T08:55:30.152Z,7.15
2023-04-16T08:57:47.100Z,7.80
2023-04-16T09:00:04.036Z,10.20
2023-04-16T09:02:21.226Z,7.78
2023-04-16T09:04:38.439Z,8.95
2023-04-16T09:06:56.622Z,8.63
2023-04-16T09:09:13.626Z,9.57
2023-04-16T09:11:30.918Z,8.82
2023-04-16T09:13:48.149Z,8.60
2023-04-16T09:16:05.985Z,8.63
2023-04-16T09:18:22.980Z,8.55
2023-04-16T09:20:39.957Z,9.88
2023-04-16T09:22:57.194Z,8.80
2023-04-16T09:25:15.153Z,10.68
2023-04-16T09:27:32.450Z,10.20
2023-04-16T09:29:49.372Z,8.98
2023-04-16T09:32:06.687Z,9.82
2023-04-16T09:34:24.789Z,8.75
2023-04-16T09:36:41.786Z,10.57
2023-04-16T09:38:58.645Z,11.20
2023-04-16T09:41:15.890Z,11.48
2023-04-16T09:43:33.149Z,9.90
2023-04-16T09:45:50.474Z,9.55
2023-04-16T09:48:07.618Z,9.27
2023-04-16T09:50:24.649Z,9.43
2023-04-16T09:52:43.404Z,10.18
2023-04-16T09:55:00.392Z,9.48
2023-04-16T09:57:17.315Z,8.88
2023-04-16T09:59:34.632Z,8.85
2023-04-16T10:01:51.802Z,8.45
2023-04-16T10:04:09.110Z,9.38
2023-04-16T10:06:27.173Z,9.00
2023-04-16T10:08:44.515Z,8.75
2023-04-16T10:11:01.877Z,8.63
2023-04-16T10:13:19.970Z,9.00
2023-04-16T10:15:37.017Z,8.45
2023-04-16T10:17:55.245Z,8.75
2023-04-16T10:20:12.571Z,8.05
2023-04-16T10:22:29.525Z,8.30
2023-04-16T10:24:46.462Z,7.85
2023-04-16T10:27:03.726Z,8.18
2023-04-16T10:29:20.836Z,8.02
2023-04-16T10:31:38.103Z,8.07
2023-04-16T10:33:55.315Z,8.20
2023-04-16T10:36:12.288Z,8.23
2023-04-16T10:38:29.575Z,7.85
2023-04-16T10:40:46.572Z,7.28
2023-04-16T10:43:03.922Z,7.57
2023-04-16T10:45:20.952Z,7.32
2023-04-16T10:47:38.054Z,7.82
2023-04-16T10:49:55.892Z,7.88
2023-04-16T10:52:13.147Z,7.25
2023-04-16T10:54:30.346Z,7.88
2023-04-16T10:56:47.300Z,7.80
2023-04-16T10:59:05.659Z,8.00
2023-04-16T11:01:22.756Z,7.45
2023-04-16T11:03:39.839Z,7.70
2023-04-16T11:05:57.292Z,7.95
2023-04-16T11:08:14.544Z,7.85
2023-04-16T11:10:32.819Z,11.93
2023-04-16T11:12:49.870Z,12.15
2023-04-16T11:15:07.209Z,12.95
2023-04-16T11:17:24.287Z,10.95
2023-04-16T11:19:41.315Z,10.30
2023-04-16T11:21:58.520Z,9.60
2023-04-16T11:24:15.851Z,8.63
2023-04-16T11:26:32.859Z,9.38
2023-04-16T11:28:49.896Z,10.02
2023-04-16T11:31:06.898Z,9.65
2023-04-16T11:33:24.325Z,9.75
2023-04-16T11:35:41.452Z,9.93
2023-04-16T11:37:58.634Z,9.38
2023-04-16T11:40:16.643Z,10.20
2023-04-16T11:42:33.598Z,9.38
2023-04-16T11:44:50.892Z,10.68
2023-04-16T11:47:07.967Z,10.13
2023-04-16T11:49:25.262Z,10.43
2023-04-16T11:51:42.373Z,9.63
2023-04-16T11:53:59.409Z,9.77
2023-04-16T11:56:16.417Z,9.98
2023-04-16T11:58:34.447Z,9.88
2023-04-16T12:00:52.046Z,10.20
2023-04-16T12:03:09.281Z,10.23
2023-04-16T12:05:27.678Z,9.43
2023-04-16T12:07:44.698Z,9.60
2023-04-16T12:10:02.754Z,10.15
2023-04-16T12:12:20.039Z,9.90
2023-04-16T12:14:37.312Z,10.18
2023-04-16T12:16:55.395Z,9.90
2023-04-16T12:19:13.684Z,11.25
2023-04-16T12:21:32.011Z,10.45
2023-04-16T12:23:49.071Z,10.85
2023-04-16T12:26:06.434Z,12.40
2023-04-16T12:28:23.418Z,12.55
2023-04-16T12:30:40.530Z,13.15
2023-04-16T12:32:59.170Z,12.88
2023-04-16T12:35:17.536Z,13.18
2023-04-16T12:37:34.901Z,14.73
2023-04-16T12:39:53.606Z,15.45
2023-04-16T12:42:11.639Z,16.42
2023-04-16T12:44:28.678Z,16.40
2023-04-16T12:46:45.850Z,16.48
2023-04-16T12:49:02.994Z,18.15
2023-04-16T12:51:20.022Z,17.00
2023-04-16T12:53:37.044Z,17.65
2023-04-16T12:55:54.853Z,19.25
2023-04-16T12:58:12.677Z,19.77
2023-04-16T13:00:30.046Z,22.20
2023-04-16T13:02:48.184Z,20.25
2023-04-16T13:05:05.626Z,25.35
2023-04-16T13:07:22.719Z,19.45
2023-04-16T13:09:40.070Z,21.38
2023-04-16T13:11:57.151Z,20.50
2023-04-16T13:14:14.221Z,24.55
2023-04-16T13:16:31.468Z,22.40
2023-04-16T13:18:48.392Z,22.42
2023-04-16T13:21:05.365Z,35.40
2023-04-16T13:23:22.702Z,21.98
2023-04-16T13:25:39.734Z,23.63
2023-04-16T13:27:57.033Z,25.48
2023-04-16T13:30:14.077Z,25.60
2023-04-16T13:32:31.154Z,22.35
2023-04-16T13:34:48.437Z,18.23
2023-04-16T13:37:05.636Z,19.33
2023-04-16T13:39:23.148Z,17.55
2023-04-16T13:41:40.377Z,18.70
2023-04-16T13:43:58.236Z,17.27
2023-04-16T13:46:15.296Z,18.17
2023-04-16T13:48:33.293Z,18.40
2023-04-16T13:50:50.296Z,18.88
2023-04-16T13:53:07.518Z,18.50
2023-04-16T13:55:24.743Z,17.67
2023-04-16T13:57:42.005Z,17.60
2023-04-16T13:59:58.919Z,17.40
2023-04-16T14:02:15.943Z,17.77
2023-04-16T14:04:33.200Z,18.05
2023-04-16T14:06:51.115Z,17.88
2023-04-16T14:09:08.312Z,17.17
2023-04-16T14:11:25.646Z,17.70
2023-04-16T14:13:43.597Z,16.85
2023-04-16T14:16:00.671Z,17.77
2023-04-16T14:18:19.388Z,18.35
2023-04-16T14:20:36.349Z,18.17
2023-04-16T14:22:53.571Z,17.80
2023-04-16T14:25:10.789Z,19.58
2023-04-16T14:27:29.073Z,17.25
2023-04-16T14:29:46.157Z,18.45
2023-04-16T14:32:03.234Z,17.05
2023-04-16T14:34:20.325Z,16.65
2023-04-16T14:36:37.407Z,18.30
2023-04-16T14:38:55.394Z,17.45
2023-04-16T14:41:12.683Z,17.13
2023-04-16T14:43:29.788Z,17.60
2023-04-16T14:45:47.084Z,18.05
2023-04-16T14:48:04.189Z,17.55
2023-04-16T14:50:21.481Z,17.83
2023-04-16T14:52:38.536Z,17.27
2023-04-16T14:54:55.432Z,17.13
2023-04-16T14:57:12.370Z,16.95
2023-04-16T14:59:30.473Z,16.88
2023-04-16T15:01:47.524Z,17.70
2023-04-16T15:04:05.822Z,17.77
2023-04-16T15:06:22.906Z,18.27
2023-04-16T15:08:40.142Z,18.30
2023-04-16T15:10:58.175Z,18.60
2023-04-16T15:13:15.126Z,18.17
2023-04-16T15:15:32.134Z,18.25
2023-04-16T15:17:49.165Z,18.08
2023-04-16T15:20:06.221Z,19.17
2023-04-16T15:22:23.335Z,18.73
2023-04-16T15:24:40.201Z,17.77
2023-04-16T15:26:57.544Z,17.95
2023-04-16T15:29:14.540Z,17.30
2023-04-16T15:31:31.852Z,17.13
2023-04-16T15:33:48.864Z,16.27
2023-04-16T15:36:06.218Z,17.08
2023-04-16T15:38:23.333Z,16.17
2023-04-16T15:40:40.631Z,16.45
2023-04-16T15:42:57.680Z,17.88
2023-04-16T15:45:14.610Z,17.70
2023-04-16T15:47:31.555Z,17.05
2023-04-16T15:49:49.582Z,17.02
2023-04-16T15:52:06.841Z,17.67
2023-04-16T15:54:23.789Z,16.90
2023-04-16T15:56:40.880Z,19.98
2023-04-16T15:58:58.157Z,18.00
2023-04-16T16:01:15.262Z,18.88
2023-04-16T16:03:32.729Z,17.80
2023-04-16T16:05:49.903Z,16.90
2023-04-16T16:08:06.956Z,16.73
2023-04-16T16:10:25.291Z,15.75
2023-04-16T16:12:42.294Z,16.33
2023-04-16T16:15:00.495Z,18.95
2023-04-16T16:17:18.500Z,17.63
2023-04-16T16:19:35.556Z,16.50
2023-04-16T16:21:52.926Z,16.75
2023-04-16T16:24:09.924Z,16.40
2023-04-16T16:26:27.186Z,17.08
2023-04-16T16:28:45.113Z,17.65
2023-04-16T16:31:02.226Z,16.48
2023-04-16T16:33:19.363Z,16.20
2023-04-16T16:35:36.655Z,16.65
2023-04-16T16:37:53.716Z,16.35
2023-04-16T16:40:10.776Z,15.70
2023-04-16T16:42:27.789Z,16.83
2023-04-16T16:44:46.092Z,16.27
2023-04-16T16:47:03.408Z,17.65
2023-04-16T16:49:20.770Z,15.32
2023-04-16T16:51:37.744Z,16.67
2023-04-16T16:53:54.695Z,16.98
2023-04-16T16:56:11.637Z,16.52
2023-04-16T16:58:28.693Z,17.08
2023-04-16T17:00:45.730Z,15.35
2023-04-16T17:03:02.983Z,14.55
2023-04-16T17:05:20.302Z,15.43
2023-04-16T17:07:37.370Z,15.63
2023-04-16T17:09:54.638Z,15.32
2023-04-16T17:12:11.744Z,16.45
2023-04-16T17:14:28.778Z,15.73
2023-04-16T17:16:45.756Z,15.35
2023-04-16T17:19:03.086Z,14.52
2023-04-16T17:21:20.348Z,15.93
2023-04-16T17:23:38.766Z,16.38
2023-04-16T17:25:58.224Z,16.27
2023-04-16T17:28:15.196Z,17.33
2023-04-16T17:30:32.217Z,16.30
2023-04-16T17:32:50.347Z,17.00
2023-04-16T17:35:07.717Z,16.17
2023-04-16T17:37:25.802Z,16.30
2023-04-16T17:39:42.866Z,17.05
2023-04-16T17:42:00.162Z,17.17
2023-04-16T17:44:17.631Z,18.00
2023-04-16T17:46:34.955Z,15.80
2023-04-16T17:48:52.133Z,15.85
2023-04-16T17:51:09.353Z,16.48
2023-04-16T17:53:26.592Z,16.77
2023-04-16T17:55:44.541Z,16.23
2023-04-16T17:58:01.882Z,17.75
2023-04-16T18:00:18.963Z,17.10
2023-04-16T18:02:36.324Z,16.67
2023-04-16T18:04:53.434Z,17.25
2023-04-16T18:07:10.661Z,17.15
2023-04-16T18:09:28.990Z,17.95
2023-04-16T18:11:46.070Z,16.92
2023-04-16T18:14:03.001Z,16.42
2023-04-16T18:16:20.333Z,16.15
2023-04-16T18:18:37.576Z,17.13
2023-04-16T18:20:54.890Z,16.23
2023-04-16T18:23:11.919Z,16.35
2023-04-16T18:25:34.326Z,16.10
2023-04-16T18:27:52.113Z,15.50
2023-04-16T18:30:19.553Z,15.32
2023-04-16T18:32:56.167Z,15.05
2023-04-16T18:35:18.175Z,14.93
2023-04-16T18:37:36.443Z,16.65
2023-04-16T18:39:54.018Z,15.65
2023-04-16T18:42:12.042Z,15.90
2023-04-16T18:44:29.975Z,16.67
2023-04-16T18:46:47.097Z,15.20
2023-04-16T18:49:04.149Z,15.55
2023-04-16T18:51:22.391Z,15.73
2023-04-16T18:53:39.330Z,15.55
2023-04-16T18:55:57.128Z,15.77
2023-04-16T18:58:14.190Z,15.63
2023-04-16T19:00:32.110Z,15.82
2023-04-16T19:02:49.285Z,13.95
2023-04-16T19:05:08.410Z,14.77
2023-04-16T19:07:25.701Z,15.68
2023-04-16T19:09:42.690Z,15.75
2023-04-16T19:12:00.247Z,14.77
2023-04-16T19:14:17.338Z,15.35
2023-04-16T19:16:34.420Z,15.27
2023-04-16T19:18:51.715Z,15.27
2023-04-16T19:21:08.708Z,16.08
2023-04-16T19:23:25.778Z,16.85
2023-04-16T19:25:42.817Z,15.27
2023-04-16T19:28:00.052Z,18.10
2023-04-16T19:30:18.412Z,19.52
2023-04-16T19:32:35.373Z,19.45
2023-04-16T19:34:52.408Z,19.90
2023-04-16T19:37:09.392Z,18.00
2023-04-16T19:39:26.482Z,19.88
2023-04-16T19:41:44.816Z,18.58
2023-04-16T19:44:01.884Z,19.30
2023-04-16T19:46:19.257Z,18.58
2023-04-16T19:48:36.326Z,20.17
2023-04-16T19:50:53.386Z,19.98
2023-04-16T19:53:10.405Z,18.95
2023-04-16T19:55:28.732Z,19.13
2023-04-16T19:57:46.055Z,21.02
2023-04-16T20:00:04.234Z,20.05
2023-04-16T20:02:21.327Z,21.80
2023-04-16T20:04:38.406Z,20.95
2023-04-16T20:06:55.529Z,21.92
2023-04-16T20:09:12.860Z,21.42
2023-04-16T20:11:30.298Z,20.13
2023-04-16T20:13:47.194Z,20.35
2023-04-16T20:16:04.263Z,21.73
2023-04-16T20:18:22.351Z,21.33
2023-04-16T20:20:39.340Z,21.70
2023-04-16T20:22:56.601Z,23.85
2023-04-16T20:25:13.716Z,22.35
2023-04-16T20:27:31.069Z,23.13
2023-04-16T20:29:48.345Z,22.27
2023-04-16T20:32:06.365Z,23.77
2023-04-16T20:34:23.706Z,21.67
2023-04-16T20:36:42.046Z,23.30
2023-04-16T20:38:59.490Z,22.88
2023-04-16T20:41:16.500Z,21.60
2023-04-16T20:43:33.404Z,22.88
2023-04-16T20:45:50.443Z,22.55
2023-04-16T20:48:07.559Z,22.27
2023-04-16T20:50:24.874Z,23.40
2023-04-16T20:52:41.801Z,23.73
2023-04-16T20:54:59.082Z,23.77
2023-04-16T20:57:16.102Z,24.45
2023-04-16T20:59:33.378Z,24.52
2023-04-16T21:01:50.423Z,24.08
2023-04-16T21:04:07.511Z,24.10
2023-04-16T21:06:24.840Z,24.55
2023-04-16T21:08:42.119Z,24.88
2023-04-16T21:10:59.256Z,23.65
2023-04-16T21:13:16.186Z,24.65
2023-04-16T21:15:33.157Z,25.85
2023-04-16T21:17:50.256Z,24.30
2023-04-16T21:20:07.666Z,23.63
2023-04-16T21:22:24.668Z,25.63
2023-04-16T21:24:41.756Z,25.75
2023-04-16T21:26:58.669Z,24.77
2023-04-16T21:29:15.675Z,25.38
2023-04-16T21:31:32.846Z,23.33
2023-04-16T21:33:49.956Z,24.60
2023-04-16T21:36:07.867Z,23.90
2023-04-16T21:38:25.192Z,24.67
2023-04-16T21:40:42.429Z,22.42
2023-04-16T21:42:59.708Z,23.35
2023-04-16T21:45:16.926Z,22.80
2023-04-16T21:47:35.222Z,24.10
2023-04-16T21:49:52.560Z,24.60
2023-04-16T21:52:09.509Z,24.63
2023-04-16T21:54:26.701Z,21.70
2023-04-16T21:56:43.982Z,22.55
2023-04-16T21:59:00.883Z,22.38
2023-04-16T22:01:19.029Z,21.58
2023-04-16T22:03:36.287Z,20.98
2023-04-16T22:05:53.792Z,21.65
2023-04-16T22:08:23.265Z,19.95
2023-04-16T22:10:41.280Z,20.58
2023-04-16T22:12:58.609Z,20.42
2023-04-16T22:15:15.936Z,22.23
2023-04-16T22:17:32.896Z,18.83
2023-04-16T22:19:49.841Z,20.27
2023-04-16T22:22:06.932Z,19.42
2023-04-16T22:24:24.019Z,19.25
2023-04-16T22:26:41.056Z,20.15
2023-04-16T22:28:58.065Z,20.75
2023-04-16T22:31:14.981Z,22.17
2023-04-16T22:33:32.269Z,21.73
2023-04-16T22:35:49.503Z,21.65
2023-04-16T22:38:06.483Z,23.20
2023-04-16T22:40:24.572Z,21.77
2023-04-16T22:42:41.938Z,21.50
2023-04-16T22:44:58.868Z,22.77
2023-04-16T22:47:15.881Z,20.88
2023-04-16T22:49:33.273Z,21.50
2023-04-16T22:51:52.465Z,21.42
2023-04-16T22:54:10.015Z,20.60
2023-04-16T22:56:28.171Z,20.25
2023-04-16T22:58:45.124Z,19.38
2023-04-16T23:01:03.546Z,20.38
2023-04-16T23:03:22.310Z,20.77
2023-04-16T23:05:39.337Z,19.83
2023-04-16T23:07:56.696Z,20.60
2023-04-16T23:10:13.663Z,19.88
2023-04-16T23:12:30.611Z,20.55
2023-04-16T23:14:47.884Z,20.45
2023-04-16T23:17:05.977Z,21.02
2023-04-16T23:19:24.053Z,20.52
2023-04-16T23:21:42.065Z,20.27
2023-04-16T23:23:59.412Z,19.65
2023-04-16T23:26:16.382Z,20.45
2023-04-16T23:28:33.591Z,19.30
2023-04-16T23:30:51.541Z,20.13
2023-04-16T23:33:08.471Z,21.00
2023-04-16T23:35:25.842Z,19.10
2023-04-16T23:37:42.904Z,17.65
2023-04-16T23:40:00.166Z,18.55
2023-04-16T23:42:17.310Z,18.80
2023-04-16T23:44:34.432Z,19.38
2023-04-16T23:46:51.648Z,20.13
2023-04-16T23:49:08.850Z,20.25
2023-04-16T23:51:26.028Z,19.75
2023-04-16T23:53:43.444Z,19.15
2023-04-16T23:56:00.535Z,20.48
2023-04-16T23:58:17.519Z,19.10
